MZBZ/BZE METAR and TAF weather

Enter ICAO airport designator
Station Type Date Time Source
MZBZ METAR 2020/09/23 19:00 UTC NOAA

MZBZ 231900Z 08003KT 9999 SCT025 33/26 A2983 Q1010 NOSIG DIST CBTOP-NE


Station Type Date Time Source
MZBZ Decoded METAR 2020/09/23 19:00 UTC NOAA

Belize / Phillip Goldston Intl. Airport, Belize (MZBZ) 17-32N 088-18W 5M
Sep 23, 2020 - 03:00 PM EDT / 2020.09.23 1900 UTC
Wind: from the E (080 degrees) at 3 MPH (3 KT):0
Visibility: greater than 7 mile(s):0
Sky conditions: partly cloudy
Weather: Cumulonimbus clouds observed
Temperature: 91 F (33 C)
Heat index: 106.2 F (41.2 C):1
Dew Point: 78 F (26 C)
Relative Humidity: 66%
Pressure (altimeter): 29.83 in. Hg (1010 hPa)
ob: MZBZ 231900Z 08003KT 9999 SCT025 33/26 A2983 Q1010 NOSIG DIST CBTOP-NE
cycle: 19

Station Type Date Time Source
MZBZ TAF 2020/09/23 18:03 UTC NOAA

TAF MZBZ 231500Z 2318/2418 VRB04KT 9999 SCT023

Example: see airport list